sensor_id;sensor_type;location;lat;lon;timestamp;P1;durP1;ratioP1;P2;durP2;ratioP2
5195;SDS011;2617;51.006;12.436;2024-02-21T00:02:10;12.67;;;2.87;;
5195;SDS011;2617;51.006;12.436;2024-02-21T00:07:13;4.23;;;2.47;;
5195;SDS011;2617;51.006;12.436;2024-02-21T00:12:16;6.50;;;2.73;;
5195;SDS011;2617;51.006;12.436;2024-02-21T00:17:18;12.25;;;2.65;;
5195;SDS011;2617;51.006;12.436;2024-02-21T00:22:21;21.12;;;5.00;;
5195;SDS011;2617;51.006;12.436;2024-02-21T00:27:25;16.97;;;2.90;;
5195;SDS011;2617;51.006;12.436;2024-02-21T00:32:27;5.80;;;2.53;;
5195;SDS011;2617;51.006;12.436;2024-02-21T00:37:30;4.63;;;2.47;;
5195;SDS011;2617;51.006;12.436;2024-02-21T00:42:32;8.23;;;3.17;;
5195;SDS011;2617;51.006;12.436;2024-02-21T00:47:34;4.50;;;2.57;;
5195;SDS011;2617;51.006;12.436;2024-02-21T00:52:37;7.65;;;2.50;;
5195;SDS011;2617;51.006;12.436;2024-02-21T00:57:39;11.77;;;2.90;;
5195;SDS011;2617;51.006;12.436;2024-02-21T01:02:42;7.97;;;2.30;;
5195;SDS011;2617;51.006;12.436;2024-02-21T01:07:45;10.73;;;2.80;;
5195;SDS011;2617;51.006;12.436;2024-02-21T01:12:47;8.18;;;2.78;;
5195;SDS011;2617;51.006;12.436;2024-02-21T01:17:50;5.80;;;2.80;;
5195;SDS011;2617;51.006;12.436;2024-02-21T01:22:52;17.03;;;3.30;;
5195;SDS011;2617;51.006;12.436;2024-02-21T01:27:55;3.43;;;2.60;;
5195;SDS011;2617;51.006;12.436;2024-02-21T01:32:58;4.90;;;2.50;;
5195;SDS011;2617;51.006;12.436;2024-02-21T01:38:00;7.13;;;2.60;;
5195;SDS011;2617;51.006;12.436;2024-02-21T01:43:03;7.00;;;3.30;;
5195;SDS011;2617;51.006;12.436;2024-02-21T01:48:05;9.40;;;3.27;;
5195;SDS011;2617;51.006;12.436;2024-02-21T01:53:09;11.65;;;3.42;;
5195;SDS011;2617;51.006;12.436;2024-02-21T01:58:13;8.10;;;3.60;;
5195;SDS011;2617;51.006;12.436;2024-02-21T02:03:15;3.40;;;2.10;;
5195;SDS011;2617;51.006;12.436;2024-02-21T02:08:19;10.10;;;2.47;;
5195;SDS011;2617;51.006;12.436;2024-02-21T02:13:22;8.50;;;3.33;;
5195;SDS011;2617;51.006;12.436;2024-02-21T02:18:24;10.70;;;2.77;;
5195;SDS011;2617;51.006;12.436;2024-02-21T02:23:28;6.40;;;3.17;;
5195;SDS011;2617;51.006;12.436;2024-02-21T02:28:31;8.93;;;3.30;;
5195;SDS011;2617;51.006;12.436;2024-02-21T02:33:33;9.70;;;2.70;;
5195;SDS011;2617;51.006;12.436;2024-02-21T02:38:36;13.57;;;3.15;;
5195;SDS011;2617;51.006;12.436;2024-02-21T02:43:38;10.40;;;2.73;;
5195;SDS011;2617;51.006;12.436;2024-02-21T02:48:41;16.23;;;4.07;;
5195;SDS011;2617;51.006;12.436;2024-02-21T02:53:44;13.27;;;3.03;;
5195;SDS011;2617;51.006;12.436;2024-02-21T02:58:46;8.43;;;3.05;;
5195;SDS011;2617;51.006;12.436;2024-02-21T03:03:49;10.40;;;2.90;;
5195;SDS011;2617;51.006;12.436;2024-02-21T03:08:53;5.38;;;2.22;;
5195;SDS011;2617;51.006;12.436;2024-02-21T03:13:56;7.60;;;3.07;;
5195;SDS011;2617;51.006;12.436;2024-02-21T03:18:58;8.70;;;3.43;;
5195;SDS011;2617;51.006;12.436;2024-02-21T03:24:01;12.80;;;3.63;;
5195;SDS011;2617;51.006;12.436;2024-02-21T03:29:04;10.67;;;4.03;;
5195;SDS011;2617;51.006;12.436;2024-02-21T03:34:06;11.10;;;3.53;;
5195;SDS011;2617;51.006;12.436;2024-02-21T03:39:09;9.60;;;2.97;;
5195;SDS011;2617;51.006;12.436;2024-02-21T03:44:12;4.37;;;2.80;;
5195;SDS011;2617;51.006;12.436;2024-02-21T03:49:14;10.87;;;3.37;;
5195;SDS011;2617;51.006;12.436;2024-02-21T03:54:17;7.93;;;3.80;;
5195;SDS011;2617;51.006;12.436;2024-02-21T03:59:19;5.95;;;3.90;;
5195;SDS011;2617;51.006;12.436;2024-02-21T04:04:23;9.10;;;4.17;;
5195;SDS011;2617;51.006;12.436;2024-02-21T04:09:26;8.48;;;3.80;;
5195;SDS011;2617;51.006;12.436;2024-02-21T04:14:28;15.17;;;4.07;;
5195;SDS011;2617;51.006;12.436;2024-02-21T04:19:31;10.00;;;3.47;;
5195;SDS011;2617;51.006;12.436;2024-02-21T04:24:33;7.57;;;3.50;;
5195;SDS011;2617;51.006;12.436;2024-02-21T04:29:36;12.57;;;3.85;;
5195;SDS011;2617;51.006;12.436;2024-02-21T04:34:40;9.87;;;3.50;;
5195;SDS011;2617;51.006;12.436;2024-02-21T04:39:41;9.77;;;3.97;;
5195;SDS011;2617;51.006;12.436;2024-02-21T04:44:44;5.03;;;3.37;;
5195;SDS011;2617;51.006;12.436;2024-02-21T04:49:47;8.37;;;3.60;;
5195;SDS011;2617;51.006;12.436;2024-02-21T04:54:49;8.03;;;3.70;;
5195;SDS011;2617;51.006;12.436;2024-02-21T04:59:52;9.40;;;3.97;;
5195;SDS011;2617;51.006;12.436;2024-02-21T05:04:55;10.23;;;4.10;;
5195;SDS011;2617;51.006;12.436;2024-02-21T05:09:58;14.67;;;4.73;;
5195;SDS011;2617;51.006;12.436;2024-02-21T05:15:00;7.90;;;4.33;;
5195;SDS011;2617;51.006;12.436;2024-02-21T05:20:03;10.50;;;4.30;;
5195;SDS011;2617;51.006;12.436;2024-02-21T05:25:08;5.70;;;4.00;;
5195;SDS011;2617;51.006;12.436;2024-02-21T05:30:11;5.18;;;3.45;;
5195;SDS011;2617;51.006;12.436;2024-02-21T05:35:13;6.53;;;3.85;;
5195;SDS011;2617;51.006;12.436;2024-02-21T05:40:16;7.30;;;4.40;;
5195;SDS011;2617;51.006;12.436;2024-02-21T05:45:18;13.23;;;4.97;;
5195;SDS011;2617;51.006;12.436;2024-02-21T05:50:22;10.02;;;4.22;;
5195;SDS011;2617;51.006;12.436;2024-02-21T05:55:25;12.05;;;4.87;;
5195;SDS011;2617;51.006;12.436;2024-02-21T06:00:28;8.43;;;4.40;;
5195;SDS011;2617;51.006;12.436;2024-02-21T06:05:31;11.82;;;4.48;;
5195;SDS011;2617;51.006;12.436;2024-02-21T06:10:33;10.70;;;4.10;;
5195;SDS011;2617;51.006;12.436;2024-02-21T06:15:36;11.87;;;4.40;;
5195;SDS011;2617;51.006;12.436;2024-02-21T06:20:38;9.30;;;4.10;;
5195;SDS011;2617;51.006;12.436;2024-02-21T06:25:41;20.03;;;3.87;;
5195;SDS011;2617;51.006;12.436;2024-02-21T06:30:43;10.35;;;5.25;;
5195;SDS011;2617;51.006;12.436;2024-02-21T06:35:46;13.43;;;5.40;;
5195;SDS011;2617;51.006;12.436;2024-02-21T06:40:49;6.43;;;4.03;;
5195;SDS011;2617;51.006;12.436;2024-02-21T06:45:51;10.10;;;4.60;;
5195;SDS011;2617;51.006;12.436;2024-02-21T06:50:54;10.70;;;4.53;;
5195;SDS011;2617;51.006;12.436;2024-02-21T06:55:57;8.03;;;4.43;;
5195;SDS011;2617;51.006;12.436;2024-02-21T07:00:59;9.13;;;4.97;;
5195;SDS011;2617;51.006;12.436;2024-02-21T07:06:02;14.93;;;4.10;;
5195;SDS011;2617;51.006;12.436;2024-02-21T07:11:06;7.93;;;4.00;;
5195;SDS011;2617;51.006;12.436;2024-02-21T07:16:09;8.33;;;4.37;;
5195;SDS011;2617;51.006;12.436;2024-02-21T07:21:11;9.50;;;4.60;;
5195;SDS011;2617;51.006;12.436;2024-02-21T07:26:14;7.70;;;4.60;;
5195;SDS011;2617;51.006;12.436;2024-02-21T07:31:17;11.97;;;4.27;;
5195;SDS011;2617;51.006;12.436;2024-02-21T07:36:28;10.30;;;4.30;;
5195;SDS011;2617;51.006;12.436;2024-02-21T07:41:31;10.13;;;4.37;;
5195;SDS011;2617;51.006;12.436;2024-02-21T07:46:33;8.43;;;4.30;;
5195;SDS011;2617;51.006;12.436;2024-02-21T07:51:36;16.10;;;4.97;;
5195;SDS011;2617;51.006;12.436;2024-02-21T07:56:39;11.35;;;3.87;;
5195;SDS011;2617;51.006;12.436;2024-02-21T08:01:41;8.97;;;4.37;;
5195;SDS011;2617;51.006;12.436;2024-02-21T08:06:44;8.07;;;3.47;;
5195;SDS011;2617;51.006;12.436;2024-02-21T08:11:46;5.33;;;3.77;;
5195;SDS011;2617;51.006;12.436;2024-02-21T08:16:48;5.40;;;3.43;;
5195;SDS011;2617;51.006;12.436;2024-02-21T08:21:51;8.63;;;3.70;;
5195;SDS011;2617;51.006;12.436;2024-02-21T08:26:53;8.10;;;3.60;;
5195;SDS011;2617;51.006;12.436;2024-02-21T08:31:56;11.40;;;3.80;;
5195;SDS011;2617;51.006;12.436;2024-02-21T08:36:59;8.13;;;3.83;;
5195;SDS011;2617;51.006;12.436;2024-02-21T08:42:01;7.00;;;3.63;;
5195;SDS011;2617;51.006;12.436;2024-02-21T08:47:04;7.35;;;3.00;;
5195;SDS011;2617;51.006;12.436;2024-02-21T08:52:07;8.57;;;2.90;;
5195;SDS011;2617;51.006;12.436;2024-02-21T08:57:10;11.10;;;3.07;;
5195;SDS011;2617;51.006;12.436;2024-02-21T09:02:13;5.40;;;2.53;;
5195;SDS011;2617;51.006;12.436;2024-02-21T09:07:18;8.50;;;2.90;;
5195;SDS011;2617;51.006;12.436;2024-02-21T09:12:20;5.27;;;2.80;;
5195;SDS011;2617;51.006;12.436;2024-02-21T09:17:22;4.40;;;3.07;;
5195;SDS011;2617;51.006;12.436;2024-02-21T09:22:26;4.90;;;2.33;;
5195;SDS011;2617;51.006;12.436;2024-02-21T09:27:29;6.05;;;2.53;;
5195;SDS011;2617;51.006;12.436;2024-02-21T09:32:31;2.93;;;2.57;;
5195;SDS011;2617;51.006;12.436;2024-02-21T09:37:34;5.65;;;2.85;;
5195;SDS011;2617;51.006;12.436;2024-02-21T09:42:38;8.30;;;2.78;;
5195;SDS011;2617;51.006;12.436;2024-02-21T09:47:43;4.53;;;2.73;;
5195;SDS011;2617;51.006;12.436;2024-02-21T09:52:49;9.67;;;5.00;;
5195;SDS011;2617;51.006;12.436;2024-02-21T09:57:51;5.12;;;2.80;;
5195;SDS011;2617;51.006;12.436;2024-02-21T10:02:54;3.50;;;2.83;;
5195;SDS011;2617;51.006;12.436;2024-02-21T10:07:56;12.73;;;4.23;;
5195;SDS011;2617;51.006;12.436;2024-02-21T10:13:00;4.20;;;2.65;;
5195;SDS011;2617;51.006;12.436;2024-02-21T10:18:03;6.33;;;3.03;;
5195;SDS011;2617;51.006;12.436;2024-02-21T10:23:06;10.40;;;3.12;;
5195;SDS011;2617;51.006;12.436;2024-02-21T10:28:12;5.87;;;3.47;;
5195;SDS011;2617;51.006;12.436;2024-02-21T10:33:15;6.28;;;2.83;;
5195;SDS011;2617;51.006;12.436;2024-02-21T10:38:18;5.37;;;2.40;;
5195;SDS011;2617;51.006;12.436;2024-02-21T10:43:20;6.73;;;3.00;;
5195;SDS011;2617;51.006;12.436;2024-02-21T10:48:24;7.37;;;3.40;;
5195;SDS011;2617;51.006;12.436;2024-02-21T10:58:41;5.27;;;2.80;;
5195;SDS011;2617;51.006;12.436;2024-02-21T11:03:44;8.37;;;2.60;;
5195;SDS011;2617;51.006;12.436;2024-02-21T11:08:47;2.97;;;2.37;;
5195;SDS011;2617;51.006;12.436;2024-02-21T11:13:49;5.30;;;2.60;;
5195;SDS011;2617;51.006;12.436;2024-02-21T11:18:52;9.30;;;2.67;;
5195;SDS011;2617;51.006;12.436;2024-02-21T11:23:55;2.27;;;2.00;;
5195;SDS011;2617;51.006;12.436;2024-02-21T11:28:58;3.37;;;1.97;;
5195;SDS011;2617;51.006;12.436;2024-02-21T11:34:04;3.27;;;2.00;;
5195;SDS011;2617;51.006;12.436;2024-02-21T11:39:07;1.60;;;1.50;;
5195;SDS011;2617;51.006;12.436;2024-02-21T11:44:09;2.80;;;1.70;;
5195;SDS011;2617;51.006;12.436;2024-02-21T11:49:11;8.50;;;3.00;;
5195;SDS011;2617;51.006;12.436;2024-02-21T11:54:14;6.53;;;2.10;;
5195;SDS011;2617;51.006;12.436;2024-02-21T11:59:16;3.17;;;1.73;;
5195;SDS011;2617;51.006;12.436;2024-02-21T12:04:19;2.50;;;1.70;;
5195;SDS011;2617;51.006;12.436;2024-02-21T12:09:22;6.60;;;2.13;;
5195;SDS011;2617;51.006;12.436;2024-02-21T12:14:25;2.70;;;1.90;;
5195;SDS011;2617;51.006;12.436;2024-02-21T12:19:29;4.73;;;2.80;;
5195;SDS011;2617;51.006;12.436;2024-02-21T12:24:32;5.13;;;2.73;;
5195;SDS011;2617;51.006;12.436;2024-02-21T12:29:34;7.20;;;2.50;;
5195;SDS011;2617;51.006;12.436;2024-02-21T12:34:36;9.13;;;2.80;;
5195;SDS011;2617;51.006;12.436;2024-02-21T12:39:39;4.50;;;2.13;;
5195;SDS011;2617;51.006;12.436;2024-02-21T12:44:41;6.30;;;2.43;;
5195;SDS011;2617;51.006;12.436;2024-02-21T12:49:44;7.12;;;2.85;;
5195;SDS011;2617;51.006;12.436;2024-02-21T12:54:46;8.33;;;2.20;;
5195;SDS011;2617;51.006;12.436;2024-02-21T12:59:50;5.00;;;2.40;;
5195;SDS011;2617;51.006;12.436;2024-02-21T13:04:52;6.47;;;2.10;;
5195;SDS011;2617;51.006;12.436;2024-02-21T13:09:55;4.80;;;1.80;;
5195;SDS011;2617;51.006;12.436;2024-02-21T13:14:57;5.93;;;2.13;;
5195;SDS011;2617;51.006;12.436;2024-02-21T13:20:00;5.57;;;3.20;;
5195;SDS011;2617;51.006;12.436;2024-02-21T13:25:03;2.80;;;2.10;;
5195;SDS011;2617;51.006;12.436;2024-02-21T13:30:07;4.50;;;2.50;;
5195;SDS011;2617;51.006;12.436;2024-02-21T13:35:10;6.50;;;2.67;;
5195;SDS011;2617;51.006;12.436;2024-02-21T13:45:29;3.97;;;2.03;;
5195;SDS011;2617;51.006;12.436;2024-02-21T13:50:31;3.67;;;2.07;;
5195;SDS011;2617;51.006;12.436;2024-02-21T13:55:34;3.20;;;2.20;;
5195;SDS011;2617;51.006;12.436;2024-02-21T14:00:37;5.67;;;1.80;;
5195;SDS011;2617;51.006;12.436;2024-02-21T14:05:39;2.90;;;1.73;;
5195;SDS011;2617;51.006;12.436;2024-02-21T14:10:41;5.43;;;1.80;;
5195;SDS011;2617;51.006;12.436;2024-02-21T14:15:45;4.47;;;1.70;;
5195;SDS011;2617;51.006;12.436;2024-02-21T14:20:47;3.33;;;1.50;;
5195;SDS011;2617;51.006;12.436;2024-02-21T14:25:50;3.07;;;1.67;;
5195;SDS011;2617;51.006;12.436;2024-02-21T14:30:52;4.17;;;2.10;;
5195;SDS011;2617;51.006;12.436;2024-02-21T14:35:55;6.78;;;1.92;;
5195;SDS011;2617;51.006;12.436;2024-02-21T14:40:58;2.40;;;1.40;;
5195;SDS011;2617;51.006;12.436;2024-02-21T14:46:01;4.30;;;1.47;;
5195;SDS011;2617;51.006;12.436;2024-02-21T14:51:04;2.24;;;1.24;;
5195;SDS011;2617;51.006;12.436;2024-02-21T14:56:12;4.07;;;2.10;;
5195;SDS011;2617;51.006;12.436;2024-02-21T15:01:24;7.87;;;1.87;;
5195;SDS011;2617;51.006;12.436;2024-02-21T15:06:26;5.53;;;1.17;;
5195;SDS011;2617;51.006;12.436;2024-02-21T15:11:29;6.27;;;1.70;;
5195;SDS011;2617;51.006;12.436;2024-02-21T15:16:31;3.73;;;1.60;;
5195;SDS011;2617;51.006;12.436;2024-02-21T15:21:35;2.12;;;1.30;;
5195;SDS011;2617;51.006;12.436;2024-02-21T15:26:37;6.87;;;2.50;;
5195;SDS011;2617;51.006;12.436;2024-02-21T15:31:40;7.47;;;4.60;;
5195;SDS011;2617;51.006;12.436;2024-02-21T15:36:43;4.60;;;1.33;;
5195;SDS011;2617;51.006;12.436;2024-02-21T15:46:51;8.27;;;1.75;;
5195;SDS011;2617;51.006;12.436;2024-02-21T15:51:53;3.60;;;1.33;;
5195;SDS011;2617;51.006;12.436;2024-02-21T15:56:56;3.13;;;1.27;;
5195;SDS011;2617;51.006;12.436;2024-02-21T16:01:58;3.45;;;1.90;;
5195;SDS011;2617;51.006;12.436;2024-02-21T16:07:02;2.77;;;1.50;;
5195;SDS011;2617;51.006;12.436;2024-02-21T16:12:06;4.93;;;2.03;;
5195;SDS011;2617;51.006;12.436;2024-02-21T16:17:09;3.97;;;2.33;;
5195;SDS011;2617;51.006;12.436;2024-02-21T16:22:11;4.33;;;2.30;;
5195;SDS011;2617;51.006;12.436;2024-02-21T16:27:14;5.43;;;1.73;;
5195;SDS011;2617;51.006;12.436;2024-02-21T16:32:17;3.93;;;2.10;;
5195;SDS011;2617;51.006;12.436;2024-02-21T16:37:19;4.77;;;1.40;;
5195;SDS011;2617;51.006;12.436;2024-02-21T16:42:22;4.15;;;1.80;;
5195;SDS011;2617;51.006;12.436;2024-02-21T16:47:30;4.27;;;2.00;;
5195;SDS011;2617;51.006;12.436;2024-02-21T16:52:33;1.53;;;1.40;;
5195;SDS011;2617;51.006;12.436;2024-02-21T16:57:36;5.16;;;1.78;;
5195;SDS011;2617;51.006;12.436;2024-02-21T17:02:39;2.17;;;1.40;;
5195;SDS011;2617;51.006;12.436;2024-02-21T17:07:42;2.42;;;1.70;;
5195;SDS011;2617;51.006;12.436;2024-02-21T17:12:45;12.23;;;2.17;;
5195;SDS011;2617;51.006;12.436;2024-02-21T17:17:47;3.20;;;1.67;;
5195;SDS011;2617;51.006;12.436;2024-02-21T17:22:49;5.97;;;2.50;;
5195;SDS011;2617;51.006;12.436;2024-02-21T17:27:52;3.40;;;2.10;;
5195;SDS011;2617;51.006;12.436;2024-02-21T17:32:54;11.10;;;2.23;;
5195;SDS011;2617;51.006;12.436;2024-02-21T17:37:57;5.80;;;1.90;;
5195;SDS011;2617;51.006;12.436;2024-02-21T17:43:00;8.13;;;3.10;;
5195;SDS011;2617;51.006;12.436;2024-02-21T17:48:03;4.00;;;2.40;;
5195;SDS011;2617;51.006;12.436;2024-02-21T17:53:07;5.80;;;1.77;;
5195;SDS011;2617;51.006;12.436;2024-02-21T17:58:10;5.57;;;2.10;;
5195;SDS011;2617;51.006;12.436;2024-02-21T18:03:12;2.65;;;1.65;;
5195;SDS011;2617;51.006;12.436;2024-02-21T18:08:17;8.77;;;2.10;;
5195;SDS011;2617;51.006;12.436;2024-02-21T18:13:20;3.20;;;2.00;;
5195;SDS011;2617;51.006;12.436;2024-02-21T18:18:22;4.73;;;1.60;;
5195;SDS011;2617;51.006;12.436;2024-02-21T18:23:25;6.37;;;1.60;;
5195;SDS011;2617;51.006;12.436;2024-02-21T18:28:29;3.63;;;1.90;;
5195;SDS011;2617;51.006;12.436;2024-02-21T18:33:32;1.95;;;1.42;;
5195;SDS011;2617;51.006;12.436;2024-02-21T18:38:34;2.77;;;1.53;;
5195;SDS011;2617;51.006;12.436;2024-02-21T18:43:37;3.80;;;1.67;;
5195;SDS011;2617;51.006;12.436;2024-02-21T18:48:40;4.47;;;1.53;;
5195;SDS011;2617;51.006;12.436;2024-02-21T18:53:43;2.47;;;1.37;;
5195;SDS011;2617;51.006;12.436;2024-02-21T18:58:47;1.43;;;1.10;;
5195;SDS011;2617;51.006;12.436;2024-02-21T19:03:49;1.90;;;1.60;;
5195;SDS011;2617;51.006;12.436;2024-02-21T19:08:52;7.60;;;1.77;;
5195;SDS011;2617;51.006;12.436;2024-02-21T19:13:54;2.05;;;1.50;;
5195;SDS011;2617;51.006;12.436;2024-02-21T19:18:57;3.37;;;1.30;;
5195;SDS011;2617;51.006;12.436;2024-02-21T19:23:59;6.80;;;2.10;;
5195;SDS011;2617;51.006;12.436;2024-02-21T19:29:01;5.70;;;1.95;;
5195;SDS011;2617;51.006;12.436;2024-02-21T19:34:04;3.00;;;1.83;;
5195;SDS011;2617;51.006;12.436;2024-02-21T19:39:07;3.33;;;2.00;;
5195;SDS011;2617;51.006;12.436;2024-02-21T19:44:09;2.40;;;1.13;;
5195;SDS011;2617;51.006;12.436;2024-02-21T19:49:11;2.97;;;0.90;;
5195;SDS011;2617;51.006;12.436;2024-02-21T19:54:16;5.50;;;1.42;;
5195;SDS011;2617;51.006;12.436;2024-02-21T19:59:18;4.10;;;1.60;;
5195;SDS011;2617;51.006;12.436;2024-02-21T20:04:20;1.70;;;1.30;;
5195;SDS011;2617;51.006;12.436;2024-02-21T20:09:23;1.67;;;1.50;;
5195;SDS011;2617;51.006;12.436;2024-02-21T20:14:26;1.30;;;1.20;;
5195;SDS011;2617;51.006;12.436;2024-02-21T20:19:28;7.50;;;2.43;;
5195;SDS011;2617;51.006;12.436;2024-02-21T20:24:31;2.57;;;1.30;;
5195;SDS011;2617;51.006;12.436;2024-02-21T20:29:33;2.30;;;1.50;;
5195;SDS011;2617;51.006;12.436;2024-02-21T20:34:37;2.43;;;1.40;;
5195;SDS011;2617;51.006;12.436;2024-02-21T20:39:40;1.58;;;1.00;;
5195;SDS011;2617;51.006;12.436;2024-02-21T20:44:42;2.77;;;1.33;;
5195;SDS011;2617;51.006;12.436;2024-02-21T20:49:45;2.03;;;1.33;;
5195;SDS011;2617;51.006;12.436;2024-02-21T20:54:48;8.63;;;1.73;;
5195;SDS011;2617;51.006;12.436;2024-02-21T20:59:50;3.23;;;1.47;;
5195;SDS011;2617;51.006;12.436;2024-02-21T21:04:53;1.53;;;1.20;;
5195;SDS011;2617;51.006;12.436;2024-02-21T21:09:55;4.30;;;1.50;;
5195;SDS011;2617;51.006;12.436;2024-02-21T21:14:57;4.13;;;1.53;;
5195;SDS011;2617;51.006;12.436;2024-02-21T21:20:00;4.17;;;0.90;;
5195;SDS011;2617;51.006;12.436;2024-02-21T21:25:02;1.87;;;1.77;;
5195;SDS011;2617;51.006;12.436;2024-02-21T21:30:06;5.10;;;1.53;;
5195;SDS011;2617;51.006;12.436;2024-02-21T21:35:11;1.92;;;1.30;;
5195;SDS011;2617;51.006;12.436;2024-02-21T21:40:13;1.67;;;1.20;;
5195;SDS011;2617;51.006;12.436;2024-02-21T21:45:16;1.70;;;1.20;;
5195;SDS011;2617;51.006;12.436;2024-02-21T21:50:19;2.93;;;1.30;;
5195;SDS011;2617;51.006;12.436;2024-02-21T21:55:21;1.50;;;0.80;;
5195;SDS011;2617;51.006;12.436;2024-02-21T22:00:24;2.27;;;1.37;;
5195;SDS011;2617;51.006;12.436;2024-02-21T22:05:26;1.10;;;1.00;;
5195;SDS011;2617;51.006;12.436;2024-02-21T22:10:29;1.70;;;0.90;;
5195;SDS011;2617;51.006;12.436;2024-02-21T22:15:31;2.43;;;1.13;;
5195;SDS011;2617;51.006;12.436;2024-02-21T22:20:33;1.17;;;0.97;;
5195;SDS011;2617;51.006;12.436;2024-02-21T22:25:36;4.77;;;1.20;;
5195;SDS011;2617;51.006;12.436;2024-02-21T22:30:38;1.13;;;0.70;;
5195;SDS011;2617;51.006;12.436;2024-02-21T22:35:42;0.75;;;0.75;;
5195;SDS011;2617;51.006;12.436;2024-02-21T22:40:44;1.60;;;1.03;;
5195;SDS011;2617;51.006;12.436;2024-02-21T22:45:47;0.70;;;0.70;;
5195;SDS011;2617;51.006;12.436;2024-02-21T22:50:49;2.00;;;0.90;;
5195;SDS011;2617;51.006;12.436;2024-02-21T22:55:51;1.47;;;1.00;;
5195;SDS011;2617;51.006;12.436;2024-02-21T23:00:54;0.87;;;0.80;;
5195;SDS011;2617;51.006;12.436;2024-02-21T23:05:56;2.80;;;1.20;;
5195;SDS011;2617;51.006;12.436;2024-02-21T23:10:59;1.20;;;0.97;;
5195;SDS011;2617;51.006;12.436;2024-02-21T23:16:02;1.77;;;1.20;;
5195;SDS011;2617;51.006;12.436;2024-02-21T23:21:09;1.53;;;0.87;;
5195;SDS011;2617;51.006;12.436;2024-02-21T23:26:08;0.97;;;0.70;;
5195;SDS011;2617;51.006;12.436;2024-02-21T23:31:12;1.00;;;1.00;;
5195;SDS011;2617;51.006;12.436;2024-02-21T23:36:15;0.60;;;0.60;;
5195;SDS011;2617;51.006;12.436;2024-02-21T23:41:18;1.05;;;0.77;;
5195;SDS011;2617;51.006;12.436;2024-02-21T23:46:20;0.60;;;0.60;;
5195;SDS011;2617;51.006;12.436;2024-02-21T23:51:23;0.70;;;0.70;;
5195;SDS011;2617;51.006;12.436;2024-02-21T23:56:27;1.37;;;0.75;;
